sensor_id;sensor_type;location;lat;lon;timestamp;temperature;humidity
4896;DHT22;2463;49.948;8.472;2023-04-03T00:00:39;6.30;99.90
4896;DHT22;2463;49.948;8.472;2023-04-03T00:03:06;6.30;99.90
4896;DHT22;2463;49.948;8.472;2023-04-03T00:05:33;6.30;99.90
4896;DHT22;2463;49.948;8.472;2023-04-03T00:08:00;6.20;99.90
4896;DHT22;2463;49.948;8.472;2023-04-03T00:10:28;6.20;99.90
4896;DHT22;2463;49.948;8.472;2023-04-03T00:12:55;6.20;99.90
4896;DHT22;2463;49.948;8.472;2023-04-03T00:15:21;6.20;99.90
4896;DHT22;2463;49.948;8.472;2023-04-03T00:17:48;6.20;99.90
4896;DHT22;2463;49.948;8.472;2023-04-03T00:20:15;6.20;99.90
4896;DHT22;2463;49.948;8.472;2023-04-03T00:22:41;6.20;99.90
4896;DHT22;2463;49.948;8.472;2023-04-03T00:25:08;6.20;99.90
4896;DHT22;2463;49.948;8.472;2023-04-03T00:27:39;6.20;99.90
4896;DHT22;2463;49.948;8.472;2023-04-03T00:30:08;6.20;99.90
4896;DHT22;2463;49.948;8.472;2023-04-03T00:32:35;6.20;99.90
4896;DHT22;2463;49.948;8.472;2023-04-03T00:35:02;6.20;99.90
4896;DHT22;2463;49.948;8.472;2023-04-03T00:37:29;6.20;99.90
4896;DHT22;2463;49.948;8.472;2023-04-03T00:39:55;6.20;99.90
4896;DHT22;2463;49.948;8.472;2023-04-03T00:42:22;6.20;99.90
4896;DHT22;2463;49.948;8.472;2023-04-03T00:47:17;6.20;99.90
4896;DHT22;2463;49.948;8.472;2023-04-03T00:49:44;6.20;99.90
4896;DHT22;2463;49.948;8.472;2023-04-03T00:52:15;6.10;99.90
4896;DHT22;2463;49.948;8.472;2023-04-03T00:54:43;6.20;99.90
4896;DHT22;2463;49.948;8.472;2023-04-03T00:57:12;6.20;99.90
4896;DHT22;2463;49.948;8.472;2023-04-03T00:59:43;6.20;99.90
4896;DHT22;2463;49.948;8.472;2023-04-03T01:02:11;6.20;99.90
4896;DHT22;2463;49.948;8.472;2023-04-03T01:04:40;6.20;99.90
4896;DHT22;2463;49.948;8.472;2023-04-03T01:07:11;6.10;99.90
4896;DHT22;2463;49.948;8.472;2023-04-03T01:09:39;6.10;99.90
4896;DHT22;2463;49.948;8.472;2023-04-03T01:12:34;6.10;99.90
4896;DHT22;2463;49.948;8.472;2023-04-03T01:15:05;6.10;99.90
4896;DHT22;2463;49.948;8.472;2023-04-03T01:17:35;6.20;99.90
4896;DHT22;2463;49.948;8.472;2023-04-03T01:20:13;6.10;99.90
4896;DHT22;2463;49.948;8.472;2023-04-03T01:25:56;6.10;99.90
4896;DHT22;2463;49.948;8.472;2023-04-03T01:28:29;6.10;99.90
4896;DHT22;2463;49.948;8.472;2023-04-03T01:31:18;6.10;99.90
4896;DHT22;2463;49.948;8.472;2023-04-03T01:33:48;6.10;99.90
4896;DHT22;2463;49.948;8.472;2023-04-03T01:36:21;6.10;99.90
4896;DHT22;2463;49.948;8.472;2023-04-03T01:38:48;6.10;99.90
4896;DHT22;2463;49.948;8.472;2023-04-03T01:41:15;6.10;99.90
4896;DHT22;2463;49.948;8.472;2023-04-03T01:43:42;6.10;99.90
4896;DHT22;2463;49.948;8.472;2023-04-03T01:46:09;6.10;99.90
4896;DHT22;2463;49.948;8.472;2023-04-03T01:48:36;6.20;99.90
4896;DHT22;2463;49.948;8.472;2023-04-03T01:51:03;6.20;99.90
4896;DHT22;2463;49.948;8.472;2023-04-03T01:53:30;6.20;99.90
4896;DHT22;2463;49.948;8.472;2023-04-03T01:55:56;6.20;99.90
4896;DHT22;2463;49.948;8.472;2023-04-03T01:58:23;6.20;99.90
4896;DHT22;2463;49.948;8.472;2023-04-03T02:00:51;6.20;99.90
4896;DHT22;2463;49.948;8.472;2023-04-03T02:03:18;6.20;99.90
4896;DHT22;2463;49.948;8.472;2023-04-03T02:05:45;6.20;99.90
4896;DHT22;2463;49.948;8.472;2023-04-03T02:08:12;6.20;99.90
4896;DHT22;2463;49.948;8.472;2023-04-03T02:10:39;6.30;99.90
4896;DHT22;2463;49.948;8.472;2023-04-03T02:13:06;6.30;99.90
4896;DHT22;2463;49.948;8.472;2023-04-03T02:15:32;6.30;99.90
4896;DHT22;2463;49.948;8.472;2023-04-03T02:17:59;6.20;99.90
4896;DHT22;2463;49.948;8.472;2023-04-03T02:20:26;6.10;99.90
4896;DHT22;2463;49.948;8.472;2023-04-03T02:22:52;6.10;99.90
4896;DHT22;2463;49.948;8.472;2023-04-03T02:25:19;6.10;99.90
4896;DHT22;2463;49.948;8.472;2023-04-03T02:27:46;6.10;99.90
4896;DHT22;2463;49.948;8.472;2023-04-03T02:30:13;6.10;99.90
4896;DHT22;2463;49.948;8.472;2023-04-03T02:32:41;6.10;99.90
4896;DHT22;2463;49.948;8.472;2023-04-03T02:35:09;6.10;99.90
4896;DHT22;2463;49.948;8.472;2023-04-03T02:37:37;6.10;99.90
4896;DHT22;2463;49.948;8.472;2023-04-03T02:40:04;6.10;99.90
4896;DHT22;2463;49.948;8.472;2023-04-03T02:42:31;6.00;99.90
4896;DHT22;2463;49.948;8.472;2023-04-03T02:44:58;6.00;99.90
4896;DHT22;2463;49.948;8.472;2023-04-03T02:47:27;6.00;99.90
4896;DHT22;2463;49.948;8.472;2023-04-03T02:49:54;6.00;99.90
4896;DHT22;2463;49.948;8.472;2023-04-03T02:52:21;5.90;99.90
4896;DHT22;2463;49.948;8.472;2023-04-03T02:54:47;5.90;99.90
4896;DHT22;2463;49.948;8.472;2023-04-03T02:57:14;6.00;99.90
4896;DHT22;2463;49.948;8.472;2023-04-03T02:59:41;6.00;99.90
4896;DHT22;2463;49.948;8.472;2023-04-03T03:02:08;6.00;99.90
4896;DHT22;2463;49.948;8.472;2023-04-03T03:04:35;6.00;99.90
4896;DHT22;2463;49.948;8.472;2023-04-03T03:07:03;6.10;99.90
4896;DHT22;2463;49.948;8.472;2023-04-03T03:09:30;6.00;99.90
4896;DHT22;2463;49.948;8.472;2023-04-03T03:11:57;6.10;99.90
4896;DHT22;2463;49.948;8.472;2023-04-03T03:14:23;6.10;99.90
4896;DHT22;2463;49.948;8.472;2023-04-03T03:16:50;6.10;99.90
4896;DHT22;2463;49.948;8.472;2023-04-03T03:19:17;6.10;99.90
4896;DHT22;2463;49.948;8.472;2023-04-03T03:21:44;6.20;99.90
4896;DHT22;2463;49.948;8.472;2023-04-03T03:24:11;6.10;99.90
4896;DHT22;2463;49.948;8.472;2023-04-03T03:26:38;6.20;99.90
4896;DHT22;2463;49.948;8.472;2023-04-03T03:29:05;6.20;99.90
4896;DHT22;2463;49.948;8.472;2023-04-03T03:31:31;6.10;99.90
4896;DHT22;2463;49.948;8.472;2023-04-03T03:33:58;6.10;99.90
4896;DHT22;2463;49.948;8.472;2023-04-03T03:36:25;6.10;99.90
4896;DHT22;2463;49.948;8.472;2023-04-03T03:38:51;6.10;99.90
4896;DHT22;2463;49.948;8.472;2023-04-03T03:41:18;6.10;99.90
4896;DHT22;2463;49.948;8.472;2023-04-03T03:43:45;6.10;99.90
4896;DHT22;2463;49.948;8.472;2023-04-03T03:46:12;6.00;99.90
4896;DHT22;2463;49.948;8.472;2023-04-03T03:48:38;6.00;99.90
4896;DHT22;2463;49.948;8.472;2023-04-03T03:51:05;6.00;99.90
4896;DHT22;2463;49.948;8.472;2023-04-03T03:53:32;6.00;99.90
4896;DHT22;2463;49.948;8.472;2023-04-03T03:55:59;6.00;99.90
4896;DHT22;2463;49.948;8.472;2023-04-03T03:58:26;6.00;99.90
4896;DHT22;2463;49.948;8.472;2023-04-03T04:00:53;5.90;99.90
4896;DHT22;2463;49.948;8.472;2023-04-03T04:03:19;5.90;99.90
4896;DHT22;2463;49.948;8.472;2023-04-03T04:05:47;6.00;99.90
4896;DHT22;2463;49.948;8.472;2023-04-03T04:08:14;5.90;99.90
4896;DHT22;2463;49.948;8.472;2023-04-03T04:10:41;5.90;99.90
4896;DHT22;2463;49.948;8.472;2023-04-03T04:13:07;5.90;99.90
4896;DHT22;2463;49.948;8.472;2023-04-03T04:15:34;5.90;99.90
4896;DHT22;2463;49.948;8.472;2023-04-03T04:18:02;6.00;99.90
4896;DHT22;2463;49.948;8.472;2023-04-03T04:20:28;5.90;99.90
4896;DHT22;2463;49.948;8.472;2023-04-03T04:22:55;5.90;99.90
4896;DHT22;2463;49.948;8.472;2023-04-03T04:25:22;5.80;99.90
4896;DHT22;2463;49.948;8.472;2023-04-03T04:27:48;5.80;99.90
4896;DHT22;2463;49.948;8.472;2023-04-03T04:30:15;5.80;99.90
4896;DHT22;2463;49.948;8.472;2023-04-03T04:32:42;5.80;99.90
4896;DHT22;2463;49.948;8.472;2023-04-03T04:35:09;5.70;99.90
4896;DHT22;2463;49.948;8.472;2023-04-03T04:37:36;5.70;99.90
4896;DHT22;2463;49.948;8.472;2023-04-03T04:40:03;5.70;99.90
4896;DHT22;2463;49.948;8.472;2023-04-03T04:42:29;5.70;99.90
4896;DHT22;2463;49.948;8.472;2023-04-03T04:44:56;5.60;99.90
4896;DHT22;2463;49.948;8.472;2023-04-03T04:47:22;5.60;99.90
4896;DHT22;2463;49.948;8.472;2023-04-03T04:49:49;5.60;99.90
4896;DHT22;2463;49.948;8.472;2023-04-03T04:52:16;5.70;99.90
4896;DHT22;2463;49.948;8.472;2023-04-03T04:54:44;5.60;99.90
4896;DHT22;2463;49.948;8.472;2023-04-03T04:57:11;5.60;99.90
4896;DHT22;2463;49.948;8.472;2023-04-03T04:59:38;5.60;99.90
4896;DHT22;2463;49.948;8.472;2023-04-03T05:02:04;6.20;99.90
4896;DHT22;2463;49.948;8.472;2023-04-03T05:04:31;5.50;99.90
4896;DHT22;2463;49.948;8.472;2023-04-03T05:06:58;5.60;99.90
4896;DHT22;2463;49.948;8.472;2023-04-03T05:09:25;5.50;99.90
4896;DHT22;2463;49.948;8.472;2023-04-03T05:11:52;5.50;99.90
4896;DHT22;2463;49.948;8.472;2023-04-03T05:14:19;5.50;99.90
4896;DHT22;2463;49.948;8.472;2023-04-03T05:16:46;5.50;99.90
4896;DHT22;2463;49.948;8.472;2023-04-03T05:19:13;5.50;99.90
4896;DHT22;2463;49.948;8.472;2023-04-03T05:21:39;5.50;99.90
4896;DHT22;2463;49.948;8.472;2023-04-03T05:24:06;5.40;99.90
4896;DHT22;2463;49.948;8.472;2023-04-03T05:26:35;5.30;99.90
4896;DHT22;2463;49.948;8.472;2023-04-03T05:29:02;5.30;99.90
4896;DHT22;2463;49.948;8.472;2023-04-03T05:31:29;5.30;99.90
4896;DHT22;2463;49.948;8.472;2023-04-03T05:33:56;5.30;99.90
4896;DHT22;2463;49.948;8.472;2023-04-03T05:36:23;5.30;99.90
4896;DHT22;2463;49.948;8.472;2023-04-03T05:38:49;5.20;99.90
4896;DHT22;2463;49.948;8.472;2023-04-03T05:41:18;5.20;99.90
4896;DHT22;2463;49.948;8.472;2023-04-03T05:43:45;5.20;99.90
4896;DHT22;2463;49.948;8.472;2023-04-03T05:46:12;5.20;99.90
4896;DHT22;2463;49.948;8.472;2023-04-03T05:48:40;5.20;99.90
4896;DHT22;2463;49.948;8.472;2023-04-03T05:51:07;5.30;99.90
4896;DHT22;2463;49.948;8.472;2023-04-03T05:53:35;5.20;99.90
4896;DHT22;2463;49.948;8.472;2023-04-03T05:56:05;5.30;99.90
4896;DHT22;2463;49.948;8.472;2023-04-03T05:58:32;5.30;99.90
4896;DHT22;2463;49.948;8.472;2023-04-03T06:00:59;5.40;99.90
4896;DHT22;2463;49.948;8.472;2023-04-03T06:03:26;5.30;99.90
4896;DHT22;2463;49.948;8.472;2023-04-03T06:05:53;5.40;99.90
4896;DHT22;2463;49.948;8.472;2023-04-03T06:08:19;5.50;99.90
4896;DHT22;2463;49.948;8.472;2023-04-03T06:10:46;5.60;99.90
4896;DHT22;2463;49.948;8.472;2023-04-03T06:13:13;5.60;99.90
4896;DHT22;2463;49.948;8.472;2023-04-03T06:15:40;5.70;99.90
4896;DHT22;2463;49.948;8.472;2023-04-03T06:18:06;5.80;99.90
4896;DHT22;2463;49.948;8.472;2023-04-03T06:20:33;5.90;99.90
4896;DHT22;2463;49.948;8.472;2023-04-03T06:23:00;6.20;99.90
4896;DHT22;2463;49.948;8.472;2023-04-03T06:25:27;7.10;99.90
4896;DHT22;2463;49.948;8.472;2023-04-03T06:27:54;6.40;99.90
4896;DHT22;2463;49.948;8.472;2023-04-03T06:30:22;6.50;99.90
4896;DHT22;2463;49.948;8.472;2023-04-03T06:32:48;6.40;99.90
4896;DHT22;2463;49.948;8.472;2023-04-03T06:35:15;6.50;99.90
4896;DHT22;2463;49.948;8.472;2023-04-03T06:37:42;6.80;99.90
4896;DHT22;2463;49.948;8.472;2023-04-03T06:40:21;7.00;99.90
4896;DHT22;2463;49.948;8.472;2023-04-03T06:42:48;7.20;99.90
4896;DHT22;2463;49.948;8.472;2023-04-03T06:45:14;7.20;99.90
4896;DHT22;2463;49.948;8.472;2023-04-03T06:47:41;7.20;99.90
4896;DHT22;2463;49.948;8.472;2023-04-03T06:50:10;7.30;99.90
4896;DHT22;2463;49.948;8.472;2023-04-03T06:52:38;7.20;99.90
4896;DHT22;2463;49.948;8.472;2023-04-03T06:55:06;7.60;99.90
4896;DHT22;2463;49.948;8.472;2023-04-03T06:57:33;8.10;99.90
4896;DHT22;2463;49.948;8.472;2023-04-03T07:00:00;8.60;99.90
4896;DHT22;2463;49.948;8.472;2023-04-03T07:02:27;8.70;99.90
4896;DHT22;2463;49.948;8.472;2023-04-03T07:04:53;8.90;99.90
4896;DHT22;2463;49.948;8.472;2023-04-03T07:07:21;8.90;99.90
4896;DHT22;2463;49.948;8.472;2023-04-03T07:09:48;9.10;99.90
4896;DHT22;2463;49.948;8.472;2023-04-03T07:12:15;9.70;99.90
4896;DHT22;2463;49.948;8.472;2023-04-03T07:14:43;10.50;99.90
4896;DHT22;2463;49.948;8.472;2023-04-03T07:17:10;11.30;99.90
4896;DHT22;2463;49.948;8.472;2023-04-03T07:19:36;12.00;99.90
4896;DHT22;2463;49.948;8.472;2023-04-03T07:22:03;12.80;99.90
4896;DHT22;2463;49.948;8.472;2023-04-03T07:24:30;13.70;99.90
4896;DHT22;2463;49.948;8.472;2023-04-03T07:26:56;14.70;99.20
4896;DHT22;2463;49.948;8.472;2023-04-03T07:29:23;16.00;97.50
4896;DHT22;2463;49.948;8.472;2023-04-03T07:31:50;17.40;95.90
4896;DHT22;2463;49.948;8.472;2023-04-03T07:34:17;18.10;93.10
4896;DHT22;2463;49.948;8.472;2023-04-03T07:36:43;19.00;91.30
4896;DHT22;2463;49.948;8.472;2023-04-03T07:39:10;19.40;89.10
4896;DHT22;2463;49.948;8.472;2023-04-03T07:41:37;19.90;83.20
4896;DHT22;2463;49.948;8.472;2023-04-03T07:44:04;20.40;79.60
4896;DHT22;2463;49.948;8.472;2023-04-03T07:46:32;20.90;81.30
4896;DHT22;2463;49.948;8.472;2023-04-03T07:48:59;21.20;79.50
4896;DHT22;2463;49.948;8.472;2023-04-03T07:51:25;21.80;72.00
4896;DHT22;2463;49.948;8.472;2023-04-03T07:53:53;22.40;70.30
4896;DHT22;2463;49.948;8.472;2023-04-03T07:56:20;22.50;69.20
4896;DHT22;2463;49.948;8.472;2023-04-03T07:58:47;23.50;68.00
4896;DHT22;2463;49.948;8.472;2023-04-03T08:01:13;23.80;64.40
4896;DHT22;2463;49.948;8.472;2023-04-03T08:03:40;24.50;64.10
4896;DHT22;2463;49.948;8.472;2023-04-03T08:06:08;25.20;62.10
4896;DHT22;2463;49.948;8.472;2023-04-03T08:08:41;25.50;58.20
4896;DHT22;2463;49.948;8.472;2023-04-03T08:11:09;25.40;57.00
4896;DHT22;2463;49.948;8.472;2023-04-03T08:13:37;25.50;57.80
4896;DHT22;2463;49.948;8.472;2023-04-03T08:16:12;26.00;54.20
4896;DHT22;2463;49.948;8.472;2023-04-03T08:18:39;26.00;55.00
4896;DHT22;2463;49.948;8.472;2023-04-03T08:21:08;26.60;52.10
4896;DHT22;2463;49.948;8.472;2023-04-03T08:23:35;26.50;50.60
4896;DHT22;2463;49.948;8.472;2023-04-03T08:26:09;26.80;50.50
4896;DHT22;2463;49.948;8.472;2023-04-03T08:28:36;26.80;49.80
4896;DHT22;2463;49.948;8.472;2023-04-03T08:31:13;27.10;49.40
4896;DHT22;2463;49.948;8.472;2023-04-03T08:33:40;27.10;47.20
4896;DHT22;2463;49.948;8.472;2023-04-03T08:36:14;27.20;46.50
4896;DHT22;2463;49.948;8.472;2023-04-03T08:38:42;27.20;48.00
4896;DHT22;2463;49.948;8.472;2023-04-03T08:47:01;28.20;45.10
4896;DHT22;2463;49.948;8.472;2023-04-03T08:49:44;28.00;45.00
4896;DHT22;2463;49.948;8.472;2023-04-03T08:52:20;28.30;44.50
4896;DHT22;2463;49.948;8.472;2023-04-03T08:54:56;28.80;43.00
4896;DHT22;2463;49.948;8.472;2023-04-03T08:57:36;28.20;41.00
4896;DHT22;2463;49.948;8.472;2023-04-03T09:02:43;27.90;44.40
4896;DHT22;2463;49.948;8.472;2023-04-03T09:05:25;27.40;39.50
4896;DHT22;2463;49.948;8.472;2023-04-03T09:08:03;26.00;44.10
4896;DHT22;2463;49.948;8.472;2023-04-03T09:10:33;26.50;44.60
4896;DHT22;2463;49.948;8.472;2023-04-03T09:15:53;26.10;44.10
4896;DHT22;2463;49.948;8.472;2023-04-03T09:18:26;25.40;43.20
4896;DHT22;2463;49.948;8.472;2023-04-03T09:21:03;25.30;45.00
4896;DHT22;2463;49.948;8.472;2023-04-03T09:23:44;25.50;44.90
4896;DHT22;2463;49.948;8.472;2023-04-03T09:28:44;25.30;45.60
4896;DHT22;2463;49.948;8.472;2023-04-03T09:31:23;24.90;45.70
4896;DHT22;2463;49.948;8.472;2023-04-03T09:33:54;24.60;45.70
4896;DHT22;2463;49.948;8.472;2023-04-03T09:36:41;24.70;44.10
4896;DHT22;2463;49.948;8.472;2023-04-03T09:39:12;24.60;45.10
4896;DHT22;2463;49.948;8.472;2023-04-03T09:41:39;24.70;45.90
4896;DHT22;2463;49.948;8.472;2023-04-03T09:44:27;23.40;40.10
4896;DHT22;2463;49.948;8.472;2023-04-03T09:46:54;22.50;45.00
4896;DHT22;2463;49.948;8.472;2023-04-03T09:49:21;22.30;45.60
4896;DHT22;2463;49.948;8.472;2023-04-03T09:51:48;21.80;44.70
4896;DHT22;2463;49.948;8.472;2023-04-03T09:54:37;20.60;43.60
4896;DHT22;2463;49.948;8.472;2023-04-03T09:57:14;19.50;45.90
4896;DHT22;2463;49.948;8.472;2023-04-03T10:04:48;17.60;49.20
4896;DHT22;2463;49.948;8.472;2023-04-03T10:07:38;16.70;46.90
4896;DHT22;2463;49.948;8.472;2023-04-03T10:10:19;16.70;52.70
4896;DHT22;2463;49.948;8.472;2023-04-03T10:12:46;16.60;51.70
4896;DHT22;2463;49.948;8.472;2023-04-03T10:15:16;16.40;51.10
4896;DHT22;2463;49.948;8.472;2023-04-03T10:34:39;16.70;55.70
4896;DHT22;2463;49.948;8.472;2023-04-03T10:37:46;16.80;52.10
4896;DHT22;2463;49.948;8.472;2023-04-03T10:46:19;17.60;54.00
4896;DHT22;2463;49.948;8.472;2023-04-03T10:51:39;17.60;52.40
4896;DHT22;2463;49.948;8.472;2023-04-03T10:54:14;17.60;52.60
4896;DHT22;2463;49.948;8.472;2023-04-03T10:57:05;17.60;53.10
4896;DHT22;2463;49.948;8.472;2023-04-03T10:59:43;17.60;52.30
4896;DHT22;2463;49.948;8.472;2023-04-03T11:02:30;17.40;52.40
4896;DHT22;2463;49.948;8.472;2023-04-03T11:05:08;17.70;54.40
4896;DHT22;2463;49.948;8.472;2023-04-03T11:07:49;17.90;52.50
4896;DHT22;2463;49.948;8.472;2023-04-03T11:13:20;17.40;51.00
4896;DHT22;2463;49.948;8.472;2023-04-03T11:15:48;16.80;52.00
4896;DHT22;2463;49.948;8.472;2023-04-03T11:18:16;16.20;54.80
4896;DHT22;2463;49.948;8.472;2023-04-03T11:20:59;16.40;54.90
4896;DHT22;2463;49.948;8.472;2023-04-03T11:23:34;16.60;54.80
4896;DHT22;2463;49.948;8.472;2023-04-03T11:26:18;16.60;53.60
4896;DHT22;2463;49.948;8.472;2023-04-03T11:28:45;16.60;54.00
4896;DHT22;2463;49.948;8.472;2023-04-03T11:31:36;16.90;54.60
4896;DHT22;2463;49.948;8.472;2023-04-03T11:36:54;17.00;53.00
4896;DHT22;2463;49.948;8.472;2023-04-03T11:39:35;17.10;53.70
4896;DHT22;2463;49.948;8.472;2023-04-03T11:44:41;16.80;55.30
4896;DHT22;2463;49.948;8.472;2023-04-03T11:47:09;17.10;53.60
4896;DHT22;2463;49.948;8.472;2023-04-03T11:49:52;16.90;52.00
4896;DHT22;2463;49.948;8.472;2023-04-03T12:11:21;15.10;50.30
4896;DHT22;2463;49.948;8.472;2023-04-03T12:35:19;16.20;51.50
4896;DHT22;2463;49.948;8.472;2023-04-03T12:44:22;16.40;48.90
4896;DHT22;2463;49.948;8.472;2023-04-03T12:46:53;17.10;50.40
4896;DHT22;2463;49.948;8.472;2023-04-03T12:51:56;15.90;46.00
4896;DHT22;2463;49.948;8.472;2023-04-03T12:54:32;15.20;50.50
4896;DHT22;2463;49.948;8.472;2023-04-03T12:57:19;15.80;52.50
4896;DHT22;2463;49.948;8.472;2023-04-03T12:59:47;16.30;48.90
4896;DHT22;2463;49.948;8.472;2023-04-03T13:02:21;16.80;51.60
4896;DHT22;2463;49.948;8.472;2023-04-03T13:04:49;17.20;48.60
4896;DHT22;2463;49.948;8.472;2023-04-03T13:07:36;17.50;48.70
4896;DHT22;2463;49.948;8.472;2023-04-03T13:12:45;17.50;51.60
4896;DHT22;2463;49.948;8.472;2023-04-03T13:15:17;17.20;48.00
4896;DHT22;2463;49.948;8.472;2023-04-03T13:17:44;17.30;49.60
4896;DHT22;2463;49.948;8.472;2023-04-03T13:20:17;17.40;50.60
4896;DHT22;2463;49.948;8.472;2023-04-03T13:25:24;17.20;49.10
4896;DHT22;2463;49.948;8.472;2023-04-03T13:27:52;17.30;49.80
4896;DHT22;2463;49.948;8.472;2023-04-03T13:30:39;17.00;44.70
4896;DHT22;2463;49.948;8.472;2023-04-03T13:33:24;16.90;49.10
4896;DHT22;2463;49.948;8.472;2023-04-03T13:36:02;16.90;49.10
4896;DHT22;2463;49.948;8.472;2023-04-03T13:38:34;16.90;47.40
4896;DHT22;2463;49.948;8.472;2023-04-03T13:41:33;16.90;49.10
4896;DHT22;2463;49.948;8.472;2023-04-03T13:47:37;16.80;48.70
4896;DHT22;2463;49.948;8.472;2023-04-03T13:49:43;16.60;47.60
4896;DHT22;2463;49.948;8.472;2023-04-03T13:52:31;16.60;47.40
4896;DHT22;2463;49.948;8.472;2023-04-03T14:00:54;16.00;48.50
4896;DHT22;2463;49.948;8.472;2023-04-03T14:03:43;16.00;48.90
4896;DHT22;2463;49.948;8.472;2023-04-03T14:06:14;16.00;48.60
4896;DHT22;2463;49.948;8.472;2023-04-03T14:08:42;16.00;50.30
4896;DHT22;2463;49.948;8.472;2023-04-03T14:11:28;16.00;47.80
4896;DHT22;2463;49.948;8.472;2023-04-03T14:14:00;16.00;51.00
4896;DHT22;2463;49.948;8.472;2023-04-03T14:16:30;16.00;49.80
4896;DHT22;2463;49.948;8.472;2023-04-03T14:18:57;15.80;47.70
4896;DHT22;2463;49.948;8.472;2023-04-03T14:21:24;15.60;50.20
4896;DHT22;2463;49.948;8.472;2023-04-03T14:23:51;15.50;49.30
4896;DHT22;2463;49.948;8.472;2023-04-03T14:26:22;15.50;50.10
4896;DHT22;2463;49.948;8.472;2023-04-03T14:28:51;15.50;51.80
4896;DHT22;2463;49.948;8.472;2023-04-03T14:31:19;15.50;50.10
4896;DHT22;2463;49.948;8.472;2023-04-03T14:33:47;15.50;50.40
4896;DHT22;2463;49.948;8.472;2023-04-03T14:36:25;15.50;48.20
4896;DHT22;2463;49.948;8.472;2023-04-03T14:38:54;15.10;48.10
4896;DHT22;2463;49.948;8.472;2023-04-03T14:41:23;15.00;49.60
4896;DHT22;2463;49.948;8.472;2023-04-03T14:43:51;14.90;50.00
4896;DHT22;2463;49.948;8.472;2023-04-03T14:46:26;14.70;47.20
4896;DHT22;2463;49.948;8.472;2023-04-03T14:49:20;14.60;50.10
4896;DHT22;2463;49.948;8.472;2023-04-03T14:51:47;14.60;50.50
4896;DHT22;2463;49.948;8.472;2023-04-03T14:54:18;14.60;50.40
4896;DHT22;2463;49.948;8.472;2023-04-03T14:56:47;14.60;50.70
4896;DHT22;2463;49.948;8.472;2023-04-03T14:59:14;14.60;49.90
4896;DHT22;2463;49.948;8.472;2023-04-03T15:01:41;14.60;51.90
4896;DHT22;2463;49.948;8.472;2023-04-03T15:04:14;14.40;49.50
4896;DHT22;2463;49.948;8.472;2023-04-03T15:06:41;14.20;50.70
4896;DHT22;2463;49.948;8.472;2023-04-03T15:09:25;14.10;50.30
4896;DHT22;2463;49.948;8.472;2023-04-03T15:11:53;14.10;50.70
4896;DHT22;2463;49.948;8.472;2023-04-03T15:14:21;14.00;50.20
4896;DHT22;2463;49.948;8.472;2023-04-03T15:17:04;14.00;51.30
4896;DHT22;2463;49.948;8.472;2023-04-03T15:19:38;13.80;51.30
4896;DHT22;2463;49.948;8.472;2023-04-03T15:22:06;13.60;51.60
4896;DHT22;2463;49.948;8.472;2023-04-03T15:24:33;13.40;52.00
4896;DHT22;2463;49.948;8.472;2023-04-03T15:27:00;13.30;52.60
4896;DHT22;2463;49.948;8.472;2023-04-03T15:29:27;13.30;52.80
4896;DHT22;2463;49.948;8.472;2023-04-03T15:31:54;13.20;52.80
4896;DHT22;2463;49.948;8.472;2023-04-03T15:34:21;13.20;53.00
4896;DHT22;2463;49.948;8.472;2023-04-03T15:36:49;13.00;51.90
4896;DHT22;2463;49.948;8.472;2023-04-03T15:39:19;12.90;52.90
4896;DHT22;2463;49.948;8.472;2023-04-03T15:41:47;12.50;49.40
4896;DHT22;2463;49.948;8.472;2023-04-03T15:44:13;12.40;53.50
4896;DHT22;2463;49.948;8.472;2023-04-03T15:46:45;12.50;54.30
4896;DHT22;2463;49.948;8.472;2023-04-03T15:49:12;12.30;52.40
4896;DHT22;2463;49.948;8.472;2023-04-03T15:51:39;12.30;54.00
4896;DHT22;2463;49.948;8.472;2023-04-03T15:54:06;12.30;52.80
4896;DHT22;2463;49.948;8.472;2023-04-03T15:56:33;12.10;52.10
4896;DHT22;2463;49.948;8.472;2023-04-03T15:58:59;12.10;53.10
4896;DHT22;2463;49.948;8.472;2023-04-03T16:01:26;11.80;53.90
4896;DHT22;2463;49.948;8.472;2023-04-03T16:03:53;11.50;53.10
4896;DHT22;2463;49.948;8.472;2023-04-03T16:06:20;11.40;54.00
4896;DHT22;2463;49.948;8.472;2023-04-03T16:08:47;11.30;55.20
4896;DHT22;2463;49.948;8.472;2023-04-03T16:11:15;11.30;55.10
4896;DHT22;2463;49.948;8.472;2023-04-03T16:13:42;11.20;55.40
4896;DHT22;2463;49.948;8.472;2023-04-03T16:16:09;11.10;53.70
4896;DHT22;2463;49.948;8.472;2023-04-03T16:18:36;11.00;54.00
4896;DHT22;2463;49.948;8.472;2023-04-03T16:21:03;11.10;56.20
4896;DHT22;2463;49.948;8.472;2023-04-03T16:23:32;11.00;55.00
4896;DHT22;2463;49.948;8.472;2023-04-03T16:25:59;10.80;54.50
4896;DHT22;2463;49.948;8.472;2023-04-03T16:28:25;10.80;55.00
4896;DHT22;2463;49.948;8.472;2023-04-03T16:30:52;10.80;55.30
4896;DHT22;2463;49.948;8.472;2023-04-03T16:33:19;10.70;55.60
4896;DHT22;2463;49.948;8.472;2023-04-03T16:35:49;10.70;57.20
4896;DHT22;2463;49.948;8.472;2023-04-03T16:38:16;10.70;57.50
4896;DHT22;2463;49.948;8.472;2023-04-03T16:40:45;10.60;56.60
4896;DHT22;2463;49.948;8.472;2023-04-03T16:43:12;10.50;56.90
4896;DHT22;2463;49.948;8.472;2023-04-03T16:45:39;10.40;57.50
4896;DHT22;2463;49.948;8.472;2023-04-03T16:48:06;10.30;57.70
4896;DHT22;2463;49.948;8.472;2023-04-03T16:50:33;10.20;57.00
4896;DHT22;2463;49.948;8.472;2023-04-03T16:53:00;10.10;58.10
4896;DHT22;2463;49.948;8.472;2023-04-03T16:55:26;9.90;58.00
4896;DHT22;2463;49.948;8.472;2023-04-03T16:57:53;9.80;58.20
4896;DHT22;2463;49.948;8.472;2023-04-03T17:00:20;9.70;57.90
4896;DHT22;2463;49.948;8.472;2023-04-03T17:02:47;9.70;59.80
4896;DHT22;2463;49.948;8.472;2023-04-03T17:05:14;9.60;59.30
4896;DHT22;2463;49.948;8.472;2023-04-03T17:07:41;9.50;59.30
4896;DHT22;2463;49.948;8.472;2023-04-03T17:10:08;9.40;60.00
4896;DHT22;2463;49.948;8.472;2023-04-03T17:12:35;9.30;59.70
4896;DHT22;2463;49.948;8.472;2023-04-03T17:15:02;9.10;59.70
4896;DHT22;2463;49.948;8.472;2023-04-03T17:17:29;9.10;58.50
4896;DHT22;2463;49.948;8.472;2023-04-03T17:19:56;9.00;59.80
4896;DHT22;2463;49.948;8.472;2023-04-03T17:22:23;8.90;59.10
4896;DHT22;2463;49.948;8.472;2023-04-03T17:24:49;8.80;60.20
4896;DHT22;2463;49.948;8.472;2023-04-03T17:27:16;8.70;61.40
4896;DHT22;2463;49.948;8.472;2023-04-03T17:29:43;8.70;62.60
4896;DHT22;2463;49.948;8.472;2023-04-03T17:32:09;8.60;62.00
4896;DHT22;2463;49.948;8.472;2023-04-03T17:34:36;8.60;62.40
4896;DHT22;2463;49.948;8.472;2023-04-03T17:37:03;8.50;63.00
4896;DHT22;2463;49.948;8.472;2023-04-03T17:39:30;8.40;63.00
4896;DHT22;2463;49.948;8.472;2023-04-03T17:41:57;8.30;62.20
4896;DHT22;2463;49.948;8.472;2023-04-03T17:44:23;8.20;63.50
4896;DHT22;2463;49.948;8.472;2023-04-03T17:46:50;8.20;63.80
4896;DHT22;2463;49.948;8.472;2023-04-03T17:49:17;8.10;63.40
4896;DHT22;2463;49.948;8.472;2023-04-03T17:51:45;8.00;66.40
4896;DHT22;2463;49.948;8.472;2023-04-03T17:54:12;8.00;65.80
4896;DHT22;2463;49.948;8.472;2023-04-03T17:56:39;7.90;66.30
4896;DHT22;2463;49.948;8.472;2023-04-03T17:59:08;7.80;66.70
4896;DHT22;2463;49.948;8.472;2023-04-03T18:01:36;7.80;67.10
4896;DHT22;2463;49.948;8.472;2023-04-03T18:04:03;7.70;67.50
4896;DHT22;2463;49.948;8.472;2023-04-03T18:06:33;7.60;67.80
4896;DHT22;2463;49.948;8.472;2023-04-03T18:09:05;7.60;69.90
4896;DHT22;2463;49.948;8.472;2023-04-03T18:11:32;7.50;67.60
4896;DHT22;2463;49.948;8.472;2023-04-03T18:14:01;7.40;70.70
4896;DHT22;2463;49.948;8.472;2023-04-03T18:16:29;7.30;69.40
4896;DHT22;2463;49.948;8.472;2023-04-03T18:18:56;7.30;68.90
4896;DHT22;2463;49.948;8.472;2023-04-03T18:21:43;7.20;69.30
4896;DHT22;2463;49.948;8.472;2023-04-03T18:24:13;7.10;72.40
4896;DHT22;2463;49.948;8.472;2023-04-03T18:26:41;7.10;73.50